Time;durP1;ratioP1;P1;durP2;ratioP2;P2;SDS_P1;SDS_P2;PMS_P1;PMS_P2;Temp;Humidity;BMP_temperature;BMP_pressure;BME280_temperature;BME280_humidity;BME280_pressure;Samples;Min_cycle;Max_cycle;Signal;HPM_P1;HPM_P2
2021/05/06 00:01:25;;;;;;;3.37;3.00;;;7.30;99.90;;;;;;5053772;28;20616;-78
2021/05/06 00:32:00;;;;;;;4.63;2.83;;;7.10;99.90;;;;;;5043809;28;20193;-81
2021/05/06 00:34:27;;;;;;;4.97;2.93;;;7.10;99.90;;;;;;5044260;28;20324;-79
2021/05/06 00:36:53;;;;;;;7.20;2.73;;;7.00;99.90;;;;;;5045110;28;20226;-77
2021/05/06 00:39:23;;;;;;;5.37;2.50;;;7.10;99.90;;;;;;5045905;28;20700;-78
2021/05/06 01:01:35;;;;;;;4.77;2.33;;;7.10;99.90;;;;;;5045440;28;20185;-79
2021/05/06 01:04:14;;;;;;;5.27;2.60;;;7.10;99.90;;;;;;5044241;28;20597;-78
2021/05/06 01:06:50;;;;;;;4.83;2.70;;;7.10;99.90;;;;;;5042725;28;20712;-78
2021/05/06 01:09:19;;;;;;;4.57;2.10;;;7.00;99.90;;;;;;5044041;28;20201;-78
2021/05/06 01:11:51;;;;;;;7.80;2.63;;;7.00;99.90;;;;;;5043045;28;20202;-78
2021/05/06 01:14:17;;;;;;;4.10;3.70;;;7.00;99.90;;;;;;5044348;28;20202;-79
2021/05/06 01:16:43;;;;;;;5.37;3.40;;;7.10;99.90;;;;;;5043428;28;20242;-78
2021/05/06 01:19:11;;;;;;;5.47;3.37;;;7.00;99.90;;;;;;5042977;28;20244;-79
2021/05/06 01:21:38;;;;;;;6.40;3.40;;;7.00;99.90;;;;;;5043484;28;20302;-79
2021/05/06 01:24:05;;;;;;;3.47;2.93;;;7.00;99.90;;;;;;5042759;28;20206;-79
2021/05/06 01:26:34;;;;;;;6.73;4.07;;;7.00;99.90;;;;;;5042412;28;20203;-78
2021/05/06 01:29:05;;;;;;;5.50;3.57;;;7.00;99.90;;;;;;5043399;28;20233;-76
2021/05/06 01:31:34;;;;;;;3.97;3.57;;;7.00;99.90;;;;;;5065367;22;20241;-77
2021/05/06 01:34:08;;;;;;;5.70;4.23;;;7.00;99.90;;;;;;5056752;28;20280;-77
2021/05/06 01:36:38;;;;;;;9.07;4.27;;;7.00;99.90;;;;;;5043204;28;20308;-77
2021/05/06 01:39:33;;;;;;;7.13;4.23;;;7.00;99.90;;;;;;5043262;28;20222;-76
2021/05/06 01:42:06;;;;;;;8.70;4.30;;;7.00;99.90;;;;;;5051620;28;20205;-78
2021/05/06 01:47:19;;;;;;;6.80;4.70;;;7.00;99.90;;;;;;5039073;28;20292;-78
2021/05/06 01:50:09;;;;;;;9.53;4.63;;;7.00;99.90;;;;;;5063337;28;20213;-78
2021/05/06 01:58:32;;;;;;;6.37;4.83;;;6.80;99.90;;;;;;5043477;28;20828;-77
2021/05/06 02:01:01;;;;;;;8.77;5.27;;;6.90;99.90;;;;;;5042747;28;20208;-78
2021/05/06 02:03:27;;;;;;;8.37;5.40;;;6.90;99.90;;;;;;5043339;28;20844;-77
2021/05/06 02:05:53;;;;;;;6.90;5.17;;;6.90;99.90;;;;;;5043481;28;20202;-77
2021/05/06 02:08:20;;;;;;;8.33;6.57;;;6.90;99.90;;;;;;5042482;28;20210;-77
2021/05/06 02:10:48;;;;;;;8.57;5.13;;;6.80;99.90;;;;;;5042661;28;20206;-76
2021/05/06 02:13:15;;;;;;;8.07;6.10;;;6.80;99.90;;;;;;5042929;28;20210;-77
2021/05/06 02:15:43;;;;;;;8.37;5.63;;;6.80;99.90;;;;;;5062337;28;20236;-75
2021/05/06 02:18:09;;;;;;;6.87;5.00;;;6.80;99.90;;;;;;5062961;28;20201;-77
2021/05/06 02:20:36;;;;;;;7.60;5.47;;;6.80;99.90;;;;;;5056654;28;20252;-76
2021/05/06 02:23:04;;;;;;;4.87;4.03;;;6.80;99.90;;;;;;5042362;28;20205;-76
2021/05/06 02:25:30;;;;;;;5.80;5.03;;;6.80;99.90;;;;;;5042637;28;20652;-77
2021/05/06 02:27:57;;;;;;;6.60;5.30;;;6.80;99.90;;;;;;5042499;28;20217;-77
2021/05/06 02:30:24;;;;;;;7.20;5.20;;;6.80;99.90;;;;;;5042303;28;20246;-77
2021/05/06 02:32:51;;;;;;;6.37;4.83;;;6.80;99.90;;;;;;5043319;28;20210;-76
2021/05/06 02:35:17;;;;;;;6.30;4.57;;;6.80;99.90;;;;;;5042892;28;20282;-77
2021/05/06 02:37:44;;;;;;;9.63;5.60;;;6.90;99.90;;;;;;5042196;28;20547;-77
2021/05/06 02:40:11;;;;;;;7.63;6.40;;;6.80;99.90;;;;;;5043014;28;20217;-76
2021/05/06 02:42:39;;;;;;;7.87;6.10;;;6.90;99.90;;;;;;5042821;28;20217;-77
2021/05/06 02:45:08;;;;;;;7.67;5.53;;;6.90;99.90;;;;;;5045177;28;20194;-75
2021/05/06 02:47:34;;;;;;;9.57;7.00;;;6.80;99.90;;;;;;5046638;28;20872;-78
2021/05/06 02:50:01;;;;;;;10.47;6.80;;;6.80;99.90;;;;;;5046425;28;20198;-78
2021/05/06 02:52:32;;;;;;;11.10;6.40;;;6.80;99.90;;;;;;5046170;28;20661;-79
2021/05/06 02:55:06;;;;;;;10.53;6.57;;;6.80;99.90;;;;;;5046227;28;20197;-78
2021/05/06 02:57:39;;;;;;;9.23;7.60;;;6.80;99.90;;;;;;5045914;28;20735;-78
2021/05/06 03:02:54;;;;;;;13.57;7.73;;;6.80;99.90;;;;;;5046818;28;20279;-78
2021/05/06 03:05:22;;;;;;;11.83;8.37;;;6.70;99.90;;;;;;5045905;28;20633;-77
2021/05/06 03:07:56;;;;;;;14.23;8.33;;;6.80;99.90;;;;;;5046455;28;20217;-77
2021/05/06 03:10:33;;;;;;;10.30;8.87;;;6.70;99.90;;;;;;5046744;28;20224;-79
2021/05/06 03:24:12;;;;;;;14.67;10.47;;;6.70;99.90;;;;;;5046144;28;20209;-78
2021/05/06 03:26:38;;;;;;;19.13;11.03;;;6.70;99.90;;;;;;5044953;28;20905;-77
2021/05/06 03:29:08;;;;;;;13.37;9.70;;;6.70;99.90;;;;;;5045942;28;20209;-76
2021/05/06 03:31:55;;;;;;;17.70;11.70;;;6.70;99.90;;;;;;5045698;28;20241;-77
2021/05/06 03:42:37;;;;;;;16.90;11.17;;;6.70;99.90;;;;;;5045491;28;20216;-78
2021/05/06 03:45:19;;;;;;;14.47;10.73;;;6.60;99.90;;;;;;5045671;28;20212;-78
2021/05/06 03:48:16;;;;;;;20.63;12.40;;;6.60;99.90;;;;;;5044975;28;20251;-78
2021/05/06 04:13:10;;;;;;;15.63;11.77;;;6.50;99.90;;;;;;5045479;28;20205;-78
2021/05/06 04:18:34;;;;;;;15.47;11.90;;;6.40;99.90;;;;;;4944376;29;20329;-78
2021/05/06 04:26:36;;;;;;;15.67;11.53;;;6.40;99.90;;;;;;5044398;28;20205;-78
2021/05/06 04:37:28;;;;;;;15.33;11.93;;;6.40;99.90;;;;;;5022259;28;20946;-78
2021/05/06 04:39:57;;;;;;;18.83;13.10;;;6.40;99.90;;;;;;5044795;28;20501;-79
2021/05/06 04:42:49;;;;;;;18.43;13.50;;;6.40;99.90;;;;;;5044247;28;20194;-78
2021/05/06 04:53:55;;;;;;;16.53;11.37;;;6.60;99.90;;;;;;5043386;28;20325;-77
2021/05/06 05:03:12;;;;;;;18.60;11.33;;;6.70;99.90;;;;;;5041369;28;20208;-79
2021/05/06 05:04:56;;;;;;;13.17;10.63;;;6.80;99.90;;;;;;5043557;28;20247;-78
2021/05/06 05:07:25;;;;;;;14.63;11.40;;;6.90;99.90;;;;;;5043890;28;20412;-78
2021/05/06 05:13:03;;;;;;;16.87;11.73;;;7.10;99.90;;;;;;5031692;28;20635;-78
2021/05/06 05:23:42;;;;;;;11.67;9.43;;;7.60;99.90;;;;;;5044276;28;20219;-77
2021/05/06 05:26:11;;;;;;;12.00;8.77;;;7.60;99.90;;;;;;5043367;28;20201;-77
2021/05/06 05:28:37;;;;;;;14.80;9.07;;;7.60;99.90;;;;;;5043655;28;20680;-77
2021/05/06 05:31:04;;;;;;;9.77;7.10;;;7.60;99.90;;;;;;5043393;28;20242;-76
2021/05/06 05:33:34;;;;;;;8.63;5.30;;;7.60;99.90;;;;;;5042959;28;20592;-77
2021/05/06 05:36:08;;;;;;;7.87;5.33;;;7.50;99.90;;;;;;5043984;28;20230;-78
2021/05/06 05:38:42;;;;;;;5.87;3.87;;;7.50;99.90;;;;;;5052135;28;20223;-77
2021/05/06 05:41:36;;;;;;;5.27;3.53;;;7.50;99.90;;;;;;5062936;28;20204;-78
2021/05/06 05:44:25;;;;;;;5.20;3.90;;;7.50;99.90;;;;;;5043735;28;20500;-77
2021/05/06 05:47:13;;;;;;;7.07;3.97;;;7.50;99.90;;;;;;5043579;28;20190;-78
2021/05/06 05:55:13;;;;;;;6.07;3.97;;;7.90;99.90;;;;;;5001454;28;20218;-78
2021/05/06 05:57:40;;;;;;;5.33;3.03;;;8.20;99.90;;;;;;5043490;28;20213;-78
2021/05/06 06:00:07;;;;;;;6.10;3.30;;;8.50;99.90;;;;;;5042577;28;20272;-78
2021/05/06 06:02:35;;;;;;;6.80;5.03;;;8.70;99.90;;;;;;5043511;28;20226;-79
2021/05/06 06:05:01;;;;;;;6.00;4.30;;;8.80;99.90;;;;;;5043184;28;20206;-78
2021/05/06 06:07:28;;;;;;;6.13;4.30;;;8.80;99.90;;;;;;5042109;28;20221;-77
2021/05/06 06:09:56;;;;;;;5.70;4.80;;;8.90;99.90;;;;;;5043406;28;20275;-77
2021/05/06 06:12:22;;;;;;;5.50;4.63;;;9.00;99.90;;;;;;5043106;28;20202;-78
2021/05/06 06:14:55;;;;;;;6.17;4.73;;;9.10;99.90;;;;;;5042393;28;20210;-77
2021/05/06 06:17:21;;;;;;;6.27;4.97;;;9.10;99.90;;;;;;5042959;28;20677;-76
2021/05/06 06:19:49;;;;;;;9.30;5.13;;;9.10;99.90;;;;;;5042825;28;20205;-78
2021/05/06 06:22:18;;;;;;;5.90;4.30;;;9.10;99.90;;;;;;5050232;22;20433;-78
2021/05/06 06:24:44;;;;;;;5.63;3.57;;;9.00;99.90;;;;;;5043134;28;20202;-78
2021/05/06 06:27:11;;;;;;;5.27;4.17;;;9.00;99.90;;;;;;5043088;28;20292;-77
2021/05/06 06:29:37;;;;;;;5.17;2.93;;;8.90;99.90;;;;;;5041995;28;20262;-78
2021/05/06 06:32:08;;;;;;;3.10;2.80;;;8.90;99.90;;;;;;5042940;28;20205;-78
2021/05/06 06:34:34;;;;;;;5.07;3.57;;;8.90;99.90;;;;;;5043101;28;20239;-80
2021/05/06 06:37:00;;;;;;;5.43;3.63;;;8.80;99.90;;;;;;5041966;28;20271;-78
2021/05/06 06:39:27;;;;;;;5.53;3.10;;;8.80;99.90;;;;;;5042335;28;20316;-77
2021/05/06 06:41:54;;;;;;;6.40;3.33;;;8.80;99.90;;;;;;5043137;28;20229;-78
2021/05/06 06:44:26;;;;;;;5.73;2.50;;;8.80;99.90;;;;;;4995674;28;20193;-76
2021/05/06 06:47:01;;;;;;;3.17;2.17;;;8.70;99.90;;;;;;5042097;28;20256;-78
2021/05/06 06:49:29;;;;;;;5.07;2.80;;;8.70;99.90;;;;;;5042470;28;20196;-75
2021/05/06 06:51:56;;;;;;;6.33;2.30;;;8.70;99.90;;;;;;5042670;28;20202;-77
2021/05/06 06:54:24;;;;;;;4.33;2.53;;;8.70;99.90;;;;;;5041490;28;20215;-77
2021/05/06 06:56:50;;;;;;;5.13;2.30;;;8.70;99.90;;;;;;5041733;28;20313;-80
2021/05/06 06:59:16;;;;;;;2.93;2.30;;;8.70;99.90;;;;;;5042711;28;20201;-77
2021/05/06 07:01:43;;;;;;;2.47;2.07;;;8.70;99.90;;;;;;5037402;28;20279;-77
2021/05/06 07:04:10;;;;;;;3.33;2.33;;;9.00;99.90;;;;;;5042189;28;20200;-77
2021/05/06 07:06:37;;;;;;;2.30;2.10;;;9.20;99.90;;;;;;5041693;28;20202;-76
2021/05/06 07:09:05;;;;;;;4.43;2.70;;;9.20;99.90;;;;;;5042336;28;20202;-77
2021/05/06 07:11:31;;;;;;;3.53;2.60;;;9.30;99.90;;;;;;5041385;28;20197;-74
2021/05/06 07:13:58;;;;;;;4.83;3.10;;;9.30;99.90;;;;;;5039878;28;20210;-76
2021/05/06 07:16:24;;;;;;;4.67;2.77;;;9.70;99.90;;;;;;5041993;28;20226;-77
2021/05/06 07:18:50;;;;;;;3.00;2.30;;;10.20;99.90;;;;;;5042114;28;20208;-78
2021/05/06 07:21:17;;;;;;;2.40;2.20;;;10.30;99.90;;;;;;5041736;28;20236;-77
2021/05/06 07:23:44;;;;;;;3.97;2.50;;;10.20;99.90;;;;;;5041058;28;20248;-77
2021/05/06 07:26:11;;;;;;;2.53;1.77;;;10.30;99.90;;;;;;5041059;28;20201;-77
2021/05/06 07:28:39;;;;;;;4.87;2.00;;;10.30;99.90;;;;;;5041826;28;20220;-77
2021/05/06 07:31:07;;;;;;;3.40;2.30;;;10.30;99.90;;;;;;5044791;28;20205;-78
2021/05/06 07:33:34;;;;;;;3.33;2.77;;;10.30;99.90;;;;;;5045295;28;20201;-75
2021/05/06 07:36:01;;;;;;;2.77;2.00;;;10.20;99.90;;;;;;5045327;28;20214;-77
2021/05/06 07:38:30;;;;;;;2.43;2.00;;;10.10;99.90;;;;;;5045146;28;20202;-76
2021/05/06 07:40:59;;;;;;;4.27;2.33;;;10.50;99.90;;;;;;5045451;28;20206;-77
2021/05/06 07:43:26;;;;;;;3.87;2.53;;;10.90;99.90;;;;;;5045215;28;20812;-75
2021/05/06 07:45:52;;;;;;;3.47;2.07;;;11.30;99.90;;;;;;5044334;28;20209;-76
2021/05/06 07:48:19;;;;;;;3.67;2.50;;;11.60;99.90;;;;;;5044875;28;20221;-77
2021/05/06 07:50:46;;;;;;;3.67;2.40;;;11.60;99.90;;;;;;5044400;28;20190;-77
2021/05/06 07:53:14;;;;;;;4.10;2.30;;;11.50;99.90;;;;;;5044259;28;20210;-76
2021/05/06 07:55:41;;;;;;;2.33;2.00;;;11.30;99.90;;;;;;5044569;28;20208;-76
2021/05/06 07:58:08;;;;;;;3.40;2.30;;;11.10;99.90;;;;;;5044653;28;20233;-76
2021/05/06 08:00:36;;;;;;;3.70;2.33;;;11.40;99.90;;;;;;5044591;28;20247;-75
2021/05/06 08:03:03;;;;;;;3.43;2.37;;;12.00;99.90;;;;;;5044797;28;20209;-77
2021/05/06 08:05:30;;;;;;;3.90;2.13;;;12.70;99.90;;;;;;5044835;28;20223;-76
2021/05/06 08:07:57;;;;;;;4.00;1.80;;;13.30;99.90;;;;;;5044159;28;20206;-76
2021/05/06 08:10:24;;;;;;;2.47;2.13;;;13.70;99.90;;;;;;5044395;28;20763;-76
2021/05/06 08:12:50;;;;;;;3.00;2.67;;;14.10;99.90;;;;;;5049378;28;20292;-76
2021/05/06 08:15:18;;;;;;;4.10;2.07;;;14.10;99.90;;;;;;5044503;28;20284;-75
2021/05/06 08:17:44;;;;;;;4.80;2.77;;;14.00;99.90;;;;;;5061949;28;20243;-77
2021/05/06 08:20:14;;;;;;;4.93;2.40;;;13.80;99.90;;;;;;5065043;28;20198;-77
2021/05/06 08:22:41;;;;;;;4.30;2.13;;;13.90;99.90;;;;;;5063533;28;20197;-76
2021/05/06 08:25:09;;;;;;;3.77;2.90;;;14.10;99.90;;;;;;5051870;28;20198;-77
2021/05/06 08:27:38;;;;;;;5.47;2.87;;;14.10;99.90;;;;;;5044042;28;20202;-77
2021/05/06 08:30:06;;;;;;;3.63;2.37;;;14.30;99.90;;;;;;5044865;28;20308;-76
2021/05/06 08:32:34;;;;;;;3.50;2.27;;;14.60;99.90;;;;;;5044771;28;20202;-76
2021/05/06 08:35:00;;;;;;;2.50;2.30;;;14.70;99.90;;;;;;5043704;28;20621;-78
2021/05/06 08:37:26;;;;;;;2.50;2.30;;;14.50;99.90;;;;;;5044382;28;20230;-76
2021/05/06 08:39:53;;;;;;;4.90;2.60;;;14.20;99.90;;;;;;5043777;28;20292;-77
2021/05/06 08:42:20;;;;;;;2.50;1.73;;;14.40;99.90;;;;;;5042051;28;20212;-77
2021/05/06 08:44:47;;;;;;;2.10;1.90;;;14.80;99.90;;;;;;5044186;28;20202;-77
2021/05/06 08:47:17;;;;;;;3.63;2.80;;;15.30;99.90;;;;;;5044290;28;20202;-76
2021/05/06 08:49:45;;;;;;;2.87;2.10;;;15.30;99.90;;;;;;5043629;28;20202;-78
2021/05/06 08:52:16;;;;;;;3.90;2.87;;;15.00;99.90;;;;;;5043940;28;20209;-77
2021/05/06 08:54:42;;;;;;;3.47;2.40;;;15.10;99.90;;;;;;5043613;28;20206;-77
2021/05/06 08:57:09;;;;;;;5.93;3.13;;;15.20;99.90;;;;;;5042339;28;20233;-77
2021/05/06 08:59:35;;;;;;;6.13;3.30;;;15.00;99.90;;;;;;5043256;28;20214;-78
2021/05/06 09:02:02;;;;;;;3.40;2.77;;;14.60;99.90;;;;;;5041744;28;20202;-77
2021/05/06 09:04:30;;;;;;;3.80;2.57;;;14.30;99.90;;;;;;5042621;28;20625;-77
2021/05/06 09:07:00;;;;;;;4.83;2.77;;;14.00;99.90;;;;;;5045739;28;20206;-77
2021/05/06 09:09:28;;;;;;;4.47;3.20;;;13.70;99.90;;;;;;5042549;28;20239;-78
2021/05/06 09:11:56;;;;;;;4.07;2.70;;;13.90;99.90;;;;;;5042955;28;20202;-77
2021/05/06 09:14:39;;;;;;;3.50;3.20;;;13.70;99.90;;;;;;5043265;28;20214;-77
2021/05/06 09:17:06;;;;;;;3.93;2.57;;;13.80;99.90;;;;;;5042746;28;20287;-78
2021/05/06 09:19:33;;;;;;;3.80;2.93;;;13.80;99.90;;;;;;5043557;28;20452;-78
2021/05/06 09:22:00;;;;;;;3.17;2.73;;;13.70;99.90;;;;;;5043438;28;20224;-78
2021/05/06 09:24:35;;;;;;;3.30;2.53;;;14.00;99.90;;;;;;5042737;28;20238;-78
2021/05/06 09:27:03;;;;;;;4.37;2.83;;;14.50;99.90;;;;;;5061647;28;20219;-77
2021/05/06 09:29:32;;;;;;;3.70;3.03;;;15.00;99.90;;;;;;5063377;28;20201;-78
2021/05/06 09:32:16;;;;;;;3.90;2.87;;;15.30;99.90;;;;;;5062391;28;20197;-77
2021/05/06 09:34:43;;;;;;;4.43;3.30;;;15.30;99.90;;;;;;5043441;28;20983;-78
2021/05/06 09:37:21;;;;;;;6.93;3.70;;;15.20;99.90;;;;;;5043345;28;20225;-77
2021/05/06 09:39:56;;;;;;;3.97;3.43;;;14.70;99.90;;;;;;5042477;28;20590;-77
2021/05/06 09:42:36;;;;;;;3.87;3.27;;;14.40;99.90;;;;;;5042990;28;20228;-78
2021/05/06 09:45:03;;;;;;;5.07;3.70;;;14.20;99.90;;;;;;5042541;28;20999;-79
2021/05/06 09:47:29;;;;;;;4.27;3.87;;;14.30;99.90;;;;;;5043112;28;20202;-79
2021/05/06 09:49:56;;;;;;;3.80;3.07;;;14.40;99.90;;;;;;5042444;28;20217;-76
2021/05/06 09:52:23;;;;;;;5.27;4.10;;;14.70;99.90;;;;;;5041904;28;20206;-77
2021/05/06 09:54:51;;;;;;;5.23;4.10;;;15.10;99.90;;;;;;5057300;28;20205;-77
2021/05/06 09:57:28;;;;;;;5.50;3.37;;;15.20;99.90;;;;;;5063033;28;20217;-78
2021/05/06 10:00:15;;;;;;;5.47;3.70;;;15.40;99.90;;;;;;5062361;28;20288;-77
2021/05/06 10:02:43;;;;;;;4.53;3.43;;;15.60;99.90;;;;;;5060781;28;20224;-78
2021/05/06 10:05:12;;;;;;;5.53;3.83;;;15.90;99.90;;;;;;5042061;28;20202;-76
2021/05/06 10:07:51;;;;;;;4.67;4.13;;;16.10;99.90;;;;;;5042116;28;20296;-77
2021/05/06 10:10:18;;;;;;;4.53;4.10;;;16.50;99.90;;;;;;5025047;28;20614;-77
2021/05/06 10:12:44;;;;;;;5.75;4.40;;;16.60;99.90;;;;;;5042324;28;20217;-77
2021/05/06 10:15:13;;;;;;;3.88;3.38;;;16.80;99.90;;;;;;5041795;28;20214;-78
2021/05/06 10:17:40;;;;;;;4.83;4.03;;;17.00;99.90;;;;;;5042224;28;20315;-78
2021/05/06 10:20:08;;;;;;;6.93;3.67;;;17.10;99.90;;;;;;5042284;28;20241;-78
2021/05/06 10:22:35;;;;;;;5.78;4.50;;;17.10;99.90;;;;;;5042177;28;20214;-77
2021/05/06 10:25:04;;;;;;;4.50;3.63;;;17.10;99.90;;;;;;5042783;28;20209;-79
2021/05/06 10:27:31;;;;;;;5.53;4.50;;;16.70;99.90;;;;;;5042256;28;20621;-76
2021/05/06 10:29:58;;;;;;;4.78;4.07;;;16.40;99.90;;;;;;5042553;28;20205;-79
2021/05/06 10:32:26;;;;;;;5.28;4.10;;;16.10;99.90;;;;;;5042842;28;20246;-78
2021/05/06 10:34:55;;;;;;;3.92;3.53;;;15.90;99.90;;;;;;5042060;28;20264;-78
2021/05/06 10:37:25;;;;;;;5.03;4.10;;;15.90;99.90;;;;;;5043882;28;20225;-78
2021/05/06 10:39:52;;;;;;;4.57;4.17;;;15.80;99.90;;;;;;5042752;28;20963;-76
2021/05/06 10:42:35;;;;;;;5.47;3.80;;;15.80;99.90;;;;;;5042288;28;20226;-74
2021/05/06 10:45:18;;;;;;;5.00;4.33;;;15.60;99.90;;;;;;5041837;28;20205;-77
2021/05/06 10:47:55;;;;;;;4.10;3.70;;;15.50;99.90;;;;;;5041711;28;20202;-76
2021/05/06 10:50:25;;;;;;;4.83;4.03;;;15.30;99.90;;;;;;5042731;28;20287;-78
2021/05/06 10:52:54;;;;;;;4.33;3.87;;;15.40;99.90;;;;;;5042769;28;20205;-77
2021/05/06 10:55:43;;;;;;;10.17;5.00;;;15.50;99.90;;;;;;5042234;28;20237;-77
2021/05/06 10:58:41;;;;;;;5.90;4.47;;;15.70;99.90;;;;;;5041943;28;20283;-76
2021/05/06 11:01:22;;;;;;;6.03;4.33;;;15.60;99.90;;;;;;5042493;28;20236;-76
2021/05/06 11:04:11;;;;;;;6.63;4.00;;;15.50;99.90;;;;;;5041598;28;20241;-79
2021/05/06 11:06:42;;;;;;;6.87;4.80;;;15.70;99.90;;;;;;5045712;28;20206;-78
2021/05/06 11:09:57;;;;;;;11.80;5.57;;;15.60;99.90;;;;;;5046236;28;20206;-77
2021/05/06 11:12:34;;;;;;;7.37;4.90;;;15.80;99.90;;;;;;5046319;28;20208;-78
2021/05/06 11:15:33;;;;;;;8.57;5.83;;;16.10;99.90;;;;;;5046345;28;20283;-78
2021/05/06 11:18:02;;;;;;;7.07;5.07;;;16.30;99.90;;;;;;5045814;28;20240;-77
2021/05/06 11:20:50;;;;;;;7.93;6.20;;;16.40;99.90;;;;;;5045545;28;20892;-80
2021/05/06 11:23:30;;;;;;;10.03;6.00;;;16.50;99.90;;;;;;5046137;28;20256;-77
2021/05/06 11:26:08;;;;;;;7.50;5.10;;;16.80;99.90;;;;;;5045408;28;20206;-78
2021/05/06 11:28:49;;;;;;;7.53;5.93;;;17.00;99.90;;;;;;5045838;28;20495;-77
2021/05/06 11:31:35;;;;;;;8.32;6.22;;;17.00;99.90;;;;;;5045714;28;20475;-79
2021/05/06 11:34:37;;;;;;;7.22;6.35;;;17.10;99.90;;;;;;5046534;28;20209;-79
2021/05/06 11:37:12;;;;;;;10.63;6.27;;;17.10;99.90;;;;;;5007417;28;20253;-78
2021/05/06 11:39:56;;;;;;;6.30;5.30;;;16.80;99.90;;;;;;5023011;28;20728;-78
2021/05/06 11:42:24;;;;;;;8.68;5.90;;;16.70;99.90;;;;;;5044696;28;20287;-80
2021/05/06 11:45:08;;;;;;;6.53;5.93;;;16.80;99.90;;;;;;5045656;28;20441;-74
2021/05/06 11:47:35;;;;;;;8.52;5.95;;;17.00;99.90;;;;;;5045360;28;20510;-76
2021/05/06 11:50:33;;;;;;;6.45;5.85;;;17.00;99.90;;;;;;5046047;28;20209;-77
2021/05/06 11:53:01;;;;;;;8.40;6.35;;;17.20;99.90;;;;;;5045255;28;20646;-77
2021/05/06 11:55:36;;;;;;;8.82;6.93;;;17.30;99.90;;;;;;5045108;28;20687;-78
2021/05/06 11:58:03;;;;;;;9.10;6.68;;;17.30;99.90;;;;;;5045393;28;20233;-77
2021/05/06 12:00:31;;;;;;;5.90;5.20;;;17.30;99.90;;;;;;5045029;28;20282;-75
2021/05/06 12:03:00;;;;;;;8.45;6.07;;;17.10;99.90;;;;;;5045404;28;20911;-78
2021/05/06 12:05:48;;;;;;;7.05;5.28;;;17.00;99.90;;;;;;5044019;28;20940;-76
2021/05/06 12:08:16;;;;;;;7.88;5.47;;;16.80;99.90;;;;;;5045328;28;20527;-78
2021/05/06 12:10:43;;;;;;;8.70;6.03;;;16.90;99.90;;;;;;5045209;28;20912;-77
2021/05/06 12:13:09;;;;;;;6.73;4.87;;;16.80;99.90;;;;;;5044586;28;20260;-77
2021/05/06 12:15:36;;;;;;;5.10;4.53;;;17.00;99.90;;;;;;5044745;28;20217;-75
2021/05/06 12:18:17;;;;;;;6.65;5.10;;;17.10;99.90;;;;;;5044392;28;20225;-76
2021/05/06 12:20:48;;;;;;;6.63;4.90;;;17.20;99.90;;;;;;5043839;28;20587;-76
2021/05/06 12:23:15;;;;;;;5.95;4.32;;;17.40;99.90;;;;;;5044200;28;20303;-76
2021/05/06 12:25:41;;;;;;;7.18;4.78;;;17.60;99.90;;;;;;5044420;28;20221;-76
2021/05/06 12:28:07;;;;;;;7.00;4.78;;;17.80;99.90;;;;;;5044052;28;20209;-79
2021/05/06 12:30:34;;;;;;;8.02;5.95;;;17.80;99.90;;;;;;5045109;28;20198;-76
2021/05/06 12:33:00;;;;;;;8.48;5.95;;;17.80;99.90;;;;;;5044585;28;20206;-80
2021/05/06 12:35:28;;;;;;;9.00;6.43;;;17.60;99.90;;;;;;5044809;28;20205;-76
2021/05/06 12:37:55;;;;;;;8.95;5.68;;;17.60;99.90;;;;;;5045256;28;20222;-75
2021/05/06 12:40:21;;;;;;;11.35;7.28;;;17.40;99.90;;;;;;5045301;28;20655;-76
2021/05/06 12:42:48;;;;;;;7.70;6.90;;;17.30;99.90;;;;;;5044618;28;20224;-77
2021/05/06 12:45:27;;;;;;;7.93;7.13;;;17.20;99.90;;;;;;5044538;28;20267;-77
2021/05/06 12:47:54;;;;;;;9.13;6.78;;;16.90;99.90;;;;;;5044249;28;20202;-75
2021/05/06 12:50:24;;;;;;;7.40;6.63;;;16.80;99.90;;;;;;5045951;28;20232;-82
2021/05/06 12:52:53;;;;;;;9.75;6.47;;;16.70;99.90;;;;;;5045645;28;20194;-76
2021/05/06 12:55:23;;;;;;;7.70;6.55;;;16.50;99.90;;;;;;5044039;28;20204;-77
2021/05/06 12:58:05;;;;;;;9.13;6.88;;;16.30;99.90;;;;;;5044487;28;20265;-82
2021/05/06 13:00:33;;;;;;;9.43;6.97;;;15.90;99.90;;;;;;5042303;28;20864;-77
2021/05/06 13:03:04;;;;;;;10.75;6.68;;;15.40;99.90;;;;;;5043251;28;20709;-78
2021/05/06 13:05:32;;;;;;;9.90;5.93;;;15.20;99.90;;;;;;5044100;28;20316;-77
2021/05/06 13:08:00;;;;;;;10.30;6.90;;;15.20;99.90;;;;;;5043812;28;20213;-77
2021/05/06 13:10:28;;;;;;;8.83;5.83;;;15.30;99.90;;;;;;5043193;28;20217;-77
2021/05/06 13:12:54;;;;;;;7.90;5.70;;;15.30;99.90;;;;;;5043979;28;20259;-76
2021/05/06 13:15:21;;;;;;;8.47;6.03;;;15.20;99.90;;;;;;5044419;28;20190;-75
2021/05/06 13:17:47;;;;;;;7.97;5.87;;;15.20;99.90;;;;;;5042985;28;20338;-78
2021/05/06 13:20:19;;;;;;;6.07;5.13;;;15.10;99.90;;;;;;5044382;28;20210;-77
2021/05/06 13:23:04;;;;;;;7.77;5.57;;;15.10;99.90;;;;;;5044035;28;20610;-75
2021/05/06 13:25:42;;;;;;;7.50;5.27;;;15.20;99.90;;;;;;5044264;28;20615;-74
2021/05/06 13:28:09;;;;;;;8.07;5.80;;;15.20;99.90;;;;;;5042980;28;20239;-76
2021/05/06 13:30:35;;;;;;;10.07;5.50;;;15.30;99.90;;;;;;5044207;28;20291;-76
2021/05/06 13:33:14;;;;;;;10.60;6.05;;;15.40;99.90;;;;;;5043600;28;20194;-77
2021/05/06 13:35:40;;;;;;;8.35;5.45;;;15.40;99.90;;;;;;5043486;28;20205;-76
2021/05/06 13:38:08;;;;;;;10.17;5.90;;;15.50;99.90;;;;;;5041811;28;20226;-76
2021/05/06 13:40:34;;;;;;;7.97;6.03;;;15.10;99.90;;;;;;5043055;28;20232;-78
2021/05/06 13:43:00;;;;;;;8.00;6.00;;;14.70;99.90;;;;;;5043902;28;20483;-78
2021/05/06 13:45:27;;;;;;;9.83;6.50;;;14.30;99.90;;;;;;5043624;28;20264;-76
2021/05/06 13:47:53;;;;;;;10.07;5.23;;;14.10;99.90;;;;;;5042610;28;20205;-75
2021/05/06 13:50:19;;;;;;;6.97;5.13;;;14.20;99.90;;;;;;5041731;28;20205;-76
2021/05/06 13:52:46;;;;;;;6.90;5.33;;;13.90;99.90;;;;;;5059964;28;20220;-76
2021/05/06 13:55:14;;;;;;;8.63;6.10;;;14.00;99.90;;;;;;5082153;28;20205;-76
2021/05/06 13:57:42;;;;;;;6.30;5.27;;;14.20;99.90;;;;;;5081958;28;20304;-76
2021/05/06 14:00:09;;;;;;;8.30;5.97;;;14.30;99.90;;;;;;5066464;28;20206;-76
2021/05/06 14:02:37;;;;;;;9.20;6.30;;;14.10;99.90;;;;;;5042049;28;20218;-76
2021/05/06 14:05:04;;;;;;;7.70;5.33;;;14.30;99.90;;;;;;5042765;28;20205;-75
2021/05/06 14:07:30;;;;;;;10.87;6.10;;;14.50;99.90;;;;;;5042350;28;20206;-79
2021/05/06 14:09:56;;;;;;;9.27;5.20;;;14.60;99.90;;;;;;5043404;28;20210;-80
2021/05/06 14:12:23;;;;;;;6.40;4.17;;;14.70;99.90;;;;;;5042773;28;20524;-80
2021/05/06 14:14:50;;;;;;;6.93;5.27;;;14.80;99.90;;;;;;5043392;28;20194;-79
2021/05/06 14:17:16;;;;;;;11.10;4.60;;;14.70;99.90;;;;;;5058023;28;20236;-78
2021/05/06 14:19:42;;;;;;;9.20;4.93;;;14.70;99.90;;;;;;5062566;28;20209;-78
2021/05/06 14:22:09;;;;;;;7.53;4.50;;;14.70;99.90;;;;;;5056429;28;20201;-77
2021/05/06 14:24:35;;;;;;;7.40;5.07;;;14.70;99.90;;;;;;5041328;28;21057;-79
2021/05/06 14:27:02;;;;;;;9.50;4.57;;;14.70;99.90;;;;;;5042284;28;20201;-79
2021/05/06 14:29:29;;;;;;;9.40;4.50;;;14.60;99.90;;;;;;5043163;28;20264;-78
2021/05/06 14:31:55;;;;;;;10.17;5.30;;;14.50;99.90;;;;;;5043676;28;20213;-79
2021/05/06 14:34:22;;;;;;;6.07;4.20;;;14.50;99.90;;;;;;5043198;28;20206;-77
2021/05/06 14:36:48;;;;;;;5.37;4.37;;;14.40;99.90;;;;;;5044149;28;20214;-83
2021/05/06 14:39:15;;;;;;;5.70;3.70;;;14.20;99.90;;;;;;5044721;28;20224;-80
2021/05/06 14:41:42;;;;;;;6.87;4.30;;;14.30;99.90;;;;;;5047481;28;20206;-78
2021/05/06 14:44:09;;;;;;;6.07;3.77;;;14.20;99.90;;;;;;5048022;28;20206;-80
2021/05/06 14:46:37;;;;;;;5.27;4.10;;;14.30;99.90;;;;;;5067724;28;20270;-80
2021/05/06 14:49:04;;;;;;;6.73;4.40;;;14.10;99.90;;;;;;5068039;28;20189;-78
2021/05/06 14:51:31;;;;;;;7.63;4.40;;;14.10;99.90;;;;;;5067957;28;20204;-78
2021/05/06 14:53:57;;;;;;;11.03;5.77;;;14.20;99.90;;;;;;5048105;28;20216;-80
2021/05/06 14:56:23;;;;;;;6.93;3.90;;;14.30;99.90;;;;;;5046263;28;20955;-77
2021/05/06 14:58:50;;;;;;;9.03;4.50;;;14.50;99.90;;;;;;5046676;28;20225;-79
2021/05/06 15:01:16;;;;;;;5.70;4.13;;;14.60;99.90;;;;;;5047006;28;20209;-77
2021/05/06 15:03:43;;;;;;;7.43;4.20;;;14.30;99.90;;;;;;5045559;28;20799;-78
2021/05/06 15:06:10;;;;;;;9.23;4.33;;;14.10;99.90;;;;;;5053902;28;20270;-78
2021/05/06 15:08:42;;;;;;;7.83;4.30;;;13.90;99.90;;;;;;5080911;28;20205;-78
2021/05/06 15:11:09;;;;;;;5.53;3.90;;;13.80;99.90;;;;;;5057812;28;20198;-78
2021/05/06 15:13:36;;;;;;;5.40;3.40;;;13.50;99.90;;;;;;5060256;28;20223;-78
2021/05/06 15:16:02;;;;;;;6.23;3.90;;;13.50;99.90;;;;;;5085954;28;20204;-78
2021/05/06 15:18:28;;;;;;;5.70;3.47;;;13.40;99.90;;;;;;5061166;28;20233;-77
2021/05/06 15:20:55;;;;;;;10.53;3.97;;;13.50;99.90;;;;;;5046545;28;20213;-78
2021/05/06 15:23:22;;;;;;;5.77;3.47;;;13.60;99.90;;;;;;5045782;28;20222;-77
2021/05/06 15:25:48;;;;;;;8.03;3.77;;;13.60;99.90;;;;;;5045519;28;20857;-79
2021/05/06 15:28:14;;;;;;;7.63;3.20;;;13.60;99.90;;;;;;5047216;28;20728;-78
2021/05/06 15:30:41;;;;;;;13.13;4.40;;;13.70;99.90;;;;;;5045666;28;20205;-78
2021/05/06 15:33:07;;;;;;;8.50;3.20;;;13.70;99.90;;;;;;5045620;28;20198;-77